Strona główna
METAR-TAF:

METAR-TAF

Lotnisko :

Boscombe Down, Anglia

Szerokość geograficzna: 51-10N, Długość geograficzna: 001-45W, wysokość: 124 m

Aktualna obserwacja pogody

Raport powstał 35 minut temu, godzina 07:50 UTC
Wiatr 10 kt od wschód
Temperatura 16°C
Wilgotność 68%
Ciśnienie 1034 hPa
Widzialność 10 km lub więcej

METAR: EGDM 280750Z AUTO 09010KT 9999 NCD 16/10 Q1034

czas: 09:25 (08:25 UTC)

Prognoza

Raport powstał 22 godziny i 8 minut temu, godzina 10:17 UTC
Prognoza ważna od 27 godzina 12 UTC do 27 godzina 16 UTC
Wiatr 5 kt od północny wschód
Widzialność 10 km lub więcej
Rozproszone chmury na wysokości 4000 ft

TAF: EGDM 271017Z 2712/2716 04005KT 9999 SCT040

Obserwacja i prognoza pogody dla ponad 4000 lotnisk (raport METAR i TAF).

Dostępne stacje oznaczono żółtymi i czerwonymi punktami na mapie.

Najedź kursorem aby zobaczyć nazwę stacji.

Kliknij aby zobaczyć obserwacje i prognozy pogody.

Aby zmienić mapę: kliknij na zielony przycisk z czarnym krzyżykiem, aby powiększyć; na zielony przycisk z myślnikiem, aby pomniejszyć; na zielone strzałki, aby przejść do map sąsiednich.


METAR-TAF: